Map

Track Data

SID SEASON NUMBER BASIN SUBBASIN NAME ISO_TIME NATURE LAT LON WMO_WIND WMO_PRES WMO_AGENCY TRACK_TYPE DIST2LAND LANDFALL IFLAG USA_AGENCY USA_ATCF_ID USA_LAT USA_LON USA_RECORD USA_STATUS USA_WIND USA_PRES USA_SSHS USA_R34_NE USA_R34_SE USA_R34_SW USA_R34_NW USA_R50_NE USA_R50_SE USA_R50_SW USA_R50_NW USA_R64_NE USA_R64_SE USA_R64_SW USA_R64_NW USA_POCI USA_ROCI USA_RMW USA_EYE TOKYO_LAT TOKYO_LON TOKYO_GRADE TOKYO_WIND TOKYO_PRES TOKYO_R50_DIR TOKYO_R50_LONG TOKYO_R50_SHORT TOKYO_R30_DIR TOKYO_R30_LONG TOKYO_R30_SHORT TOKYO_LAND CMA_LAT CMA_LON CMA_CAT CMA_WIND CMA_PRES HKO_LAT HKO_LON HKO_CAT HKO_WIND HKO_PRES NEWDELHI_LAT NEWDELHI_LON NEWDELHI_GRADE NEWDELHI_WIND NEWDELHI_PRES NEWDELHI_CI NEWDELHI_DP NEWDELHI_POCI REUNION_LAT REUNION_LON REUNION_TYPE REUNION_WIND REUNION_PRES REUNION_TNUM REUNION_CI REUNION_RMW REUNION_R34_NE REUNION_R34_SE REUNION_R34_SW REUNION_R34_NW REUNION_R50_NE REUNION_R50_SE REUNION_R50_SW REUNION_R50_NW REUNION_R64_NE REUNION_R64_SE REUNION_R64_SW REUNION_R64_NW BOM_LAT BOM_LON BOM_TYPE BOM_WIND BOM_PRES BOM_TNUM BOM_CI BOM_RMW BOM_R34_NE BOM_R34_SE BOM_R34_SW BOM_R34_NW BOM_R50_NE BOM_R50_SE BOM_R50_SW BOM_R50_NW BOM_R64_NE BOM_R64_SE BOM_R64_SW BOM_R64_NW BOM_ROCI BOM_POCI BOM_EYE BOM_POS_METHOD BOM_PRES_METHOD NADI_LAT NADI_LON NADI_CAT NADI_WIND NADI_PRES WELLINGTON_LAT WELLINGTON_LON WELLINGTON_WIND WELLINGTON_PRES DS824_LAT DS824_LON DS824_STAGE DS824_WIND DS824_PRES TD9636_LAT TD9636_LON TD9636_STAGE TD9636_WIND TD9636_PRES TD9635_LAT TD9635_LON TD9635_WIND TD9635_PRES TD9635_ROCI NEUMANN_LAT NEUMANN_LON NEUMANN_CLASS NEUMANN_WIND NEUMANN_PRES MLC_LAT MLC_LON MLC_CLASS MLC_WIND MLC_PRES USA_GUST BOM_GUST BOM_GUST_PER REUNION_GUST REUNION_GUST_PER USA_SEAHGT USA_SEARAD_NE USA_SEARAD_SE USA_SEARAD_SW USA_SEARAD_NW STORM_SPEED STORM_DIR
1966195N19301 1966 39 NA NA CELIA 1966-07-13 12:00:00 TS 19.1000 -59.5000 25 hurdat_atl main 647 603 O_____________ hurdat_atl AL031966 19.1000 -59.5000 TD 25 -1 16 320
1966195N19301 1966 39 NA NA CELIA 1966-07-13 15:00:00 TS 19.7153 -60.0392 main 606 565 P_____________ AL031966 19.7153 -60.0392 TD 27 -1 16 319
1966195N19301 1966 39 NA NA CELIA 1966-07-13 18:00:00 TS 20.3000 -60.6000 30 1012 hurdat_atl main 565 533 O_____________ hurdat_atl AL031966 20.3000 -60.6000 TD 30 1012 -1 16 316
1966195N19301 1966 39 NA NA CELIA 1966-07-13 21:00:00 TS 20.8299 -61.1928 main 533 512 P_____________ AL031966 20.8299 -61.1928 TD 35 0 15 312
1966195N19301 1966 39 NA NA CELIA 1966-07-14 00:00:00 TS 21.3000 -61.8000 40 hurdat_atl main 512 496 O_____________ hurdat_atl AL031966 21.3000 -61.8000 TS 40 0 14 309
1966195N19301 1966 39 NA NA CELIA 1966-07-14 03:00:00 TS 21.7373 -62.4002 main 497 491 P_____________ AL031966 21.7373 -62.4002 TS 40 0 14 306
1966195N19301 1966 39 NA NA CELIA 1966-07-14 06:00:00 TS 22.1000 -63.0000 40 hurdat_atl main 494 487 O_____________ hurdat_atl AL031966 22.1000 -63.0000 TS 40 0 13 302
1966195N19301 1966 39 NA NA CELIA 1966-07-14 09:00:00 TS 22.4019 -63.5702 main 493 487 P_____________ AL031966 22.4019 -63.5702 TS 40 0 12 294
1966195N19301 1966 39 NA NA CELIA 1966-07-14 12:00:00 TS 22.6000 -64.2000 40 1012 hurdat_atl main 491 483 O_____________ hurdat_atl AL031966 22.6000 -64.2000 TS 40 1012 0 13 282
1966195N19301 1966 39 NA NA CELIA 1966-07-14 15:00:00 TS 22.6875 -64.9703 main 484 480 P_____________ AL031966 22.6875 -64.9703 TS 40 1012 0 15 274
1966195N19301 1966 39 NA NA CELIA 1966-07-14 18:00:00 TS 22.7000 -65.8000 40 1012 hurdat_atl main 480 472 O_____________ hurdat_atl AL031966 22.7000 -65.8000 TS 40 1012 0 15 270
1966195N19301 1966 39 NA NA CELIA 1966-07-14 21:00:00 TS 22.6925 -66.6303 main 472 428 P_____________ AL031966 22.6925 -66.6303 TS 37 0 15 270
1966195N19301 1966 39 NA NA CELIA 1966-07-15 00:00:00 TS 22.7000 -67.4000 35 hurdat_atl main 428 410 O_____________ hurdat_atl AL031966 22.7000 -67.4000 TS 35 0 13 274
1966195N19301 1966 39 NA NA CELIA 1966-07-15 03:00:00 TS 22.7922 -68.0597 main 408 396 P_____________ AL031966 22.7922 -68.0597 TS 35 0 11 280
1966195N19301 1966 39 NA NA CELIA 1966-07-15 06:00:00 TS 22.9000 -68.6000 35 hurdat_atl main 396 383 O_____________ hurdat_atl AL031966 22.9000 -68.6000 TS 35 0 9 280
1966195N19301 1966 39 NA NA CELIA 1966-07-15 09:00:00 TS 22.9573 -69.0601 main 390 378 P_____________ AL031966 22.9573 -69.0601 TS 32 -1 7 278
1966195N19301 1966 39 NA NA CELIA 1966-07-15 12:00:00 TS 23.0000 -69.4000 30 1015 hurdat_atl main 378 372 O_____________ hurdat_atl AL031966 23.0000 -69.4000 TD 30 1015 -1 5 280
1966195N19301 1966 39 NA NA CELIA 1966-07-15 15:00:00 TS 23.0498 -69.6226 main 372 372 P_____________ AL031966 23.0498 -69.6226 TD 27 -1 4 285
1966195N19301 1966 39 NA NA CELIA 1966-07-15 18:00:00 TS 23.1000 -69.8000 25 hurdat_atl main 378 374 O_____________ hurdat_atl AL031966 23.1000 -69.8000 TD 25 -1 4 285
1966195N19301 1966 39 NA NA CELIA 1966-07-15 21:00:00 TS 23.1500 -70.0350 main 374 356 P_____________ AL031966 23.1500 -70.0350 TD 25 -1 5 282
1966195N19301 1966 39 NA NA CELIA 1966-07-16 00:00:00 TS 23.2000 -70.3000 25 hurdat_atl main 356 340 O_____________ hurdat_atl AL031966 23.2000 -70.3000 TD 25 -1 5 282
1966195N19301 1966 39 NA NA CELIA 1966-07-16 03:00:00 TS 23.2574 -70.5850 main 340 319 P_____________ AL031966 23.2574 -70.5850 TD 25 -1 6 280
1966195N19301 1966 39 NA NA CELIA 1966-07-16 06:00:00 TS 23.3000 -70.9000 25 hurdat_atl main 319 299 O_____________ hurdat_atl AL031966 23.3000 -70.9000 TD 25 -1 6 274
1966195N19301 1966 39 NA NA CELIA 1966-07-16 09:00:00 TS 23.3000 -71.2426 main 299 275 P_____________ AL031966 23.3000 -71.2426 TD 25 -1 6 270
1966195N19301 1966 39 NA NA CELIA 1966-07-16 12:00:00 TS 23.3000 -71.6000 25 hurdat_atl main 275 260 O_____________ hurdat_atl AL031966 23.3000 -71.6000 TD 25 -1 7 273
1966195N19301 1966 39 NA NA CELIA 1966-07-16 15:00:00 TS 23.3349 -71.9500 main 256 256 P_____________ AL031966 23.3349 -71.9500 TD 25 -1 7 279
1966195N19301 1966 39 NA NA CELIA 1966-07-16 18:00:00 TS 23.4000 -72.3000 25 hurdat_atl main 256 251 O_____________ hurdat_atl AL031966 23.4000 -72.3000 TD 25 -1 7 284
1966195N19301 1966 39 NA NA CELIA 1966-07-16 21:00:00 TS 23.4999 -72.6499 main 260 257 P_____________ AL031966 23.4999 -72.6499 TD 25 -1 7 287
1966195N19301 1966 39 NA NA CELIA 1966-07-17 00:00:00 TS 23.6000 -73.0000 25 hurdat_atl main 268 268 O_____________ hurdat_atl AL031966 23.6000 -73.0000 TD 25 -1 7 284
1966195N19301 1966 39 NA NA CELIA 1966-07-17 03:00:00 TS 23.6649 -73.3500 main 280 280 P_____________ AL031966 23.6649 -73.3500 TD 25 -1 6 279
1966195N19301 1966 39 NA NA CELIA 1966-07-17 06:00:00 TS 23.7000 -73.7000 25 hurdat_atl main 284 284 O_____________ hurdat_atl AL031966 23.7000 -73.7000 TD 25 -1 6 273
1966195N19301 1966 39 NA NA CELIA 1966-07-17 09:00:00 TS 23.6999 -74.0501 main 293 293 P_____________ AL031966 23.6999 -74.0501 TD 25 -1 6 270
1966195N19301 1966 39 NA NA CELIA 1966-07-17 12:00:00 TS 23.7000 -74.4000 25 hurdat_atl main 299 299 O_____________ hurdat_atl AL031966 23.7000 -74.4000 TD 25 -1 6 273
1966195N19301 1966 39 NA NA CELIA 1966-07-17 15:00:00 TS 23.7350 -74.7575 main 307 275 P_____________ AL031966 23.7350 -74.7575 TD 25 -1 6 279
1966195N19301 1966 39 NA NA CELIA 1966-07-17 18:00:00 TS 23.8000 -75.1000 25 hurdat_atl main 275 242 O_____________ hurdat_atl AL031966 23.8000 -75.1000 TD 25 -1 6 284
1966195N19301 1966 39 NA NA CELIA 1966-07-17 21:00:00 TS 23.8849 -75.4076 main 242 210 P_____________ AL031966 23.8849 -75.4076 TD 25 -1 6 290
1966195N19301 1966 39 NA NA CELIA 1966-07-18 00:00:00 TS 24.0000 -75.7000 25 hurdat_atl main 210 177 O_____________ hurdat_atl AL031966 24.0000 -75.7000 TD 25 -1 6 294
1966195N19301 1966 39 NA NA CELIA 1966-07-18 03:00:00 TS 24.1274 -76.0001 main 177 143 P_____________ AL031966 24.1274 -76.0001 TD 25 -1 6 299
1966195N19301 1966 39 NA NA CELIA 1966-07-18 06:00:00 TS 24.3000 -76.3000 25 hurdat_atl main 143 111 O_____________ hurdat_atl AL031966 24.3000 -76.3000 TD 25 -1 7 305
1966195N19301 1966 39 NA NA CELIA 1966-07-18 09:00:00 TS 24.5201 -76.6224 main 111 83 P_____________ AL031966 24.5201 -76.6224 TD 25 -1 7 312
1966195N19301 1966 39 NA NA CELIA 1966-07-18 12:00:00 TS 24.8000 -76.9000 25 hurdat_atl main 87 83 O_____________ hurdat_atl AL031966 24.8000 -76.9000 TD 25 -1 7 325
1966195N19301 1966 39 NA NA CELIA 1966-07-18 15:00:00 TS 25.1349 -77.0875 main 83 83 P_____________ AL031966 25.1349 -77.0875 TD 25 -1 8 339
1966195N19301 1966 39 NA NA CELIA 1966-07-18 18:00:00 TS 25.5000 -77.2000 25 hurdat_atl main 91 91 O_____________ hurdat_atl AL031966 25.5000 -77.2000 TD 25 -1 8 347
1966195N19301 1966 39 NA NA CELIA 1966-07-18 21:00:00 TS 25.8725 -77.2800 main 113 113 P_____________ AL031966 25.8725 -77.2800 TD 25 -1 7 353
1966195N19301 1966 39 NA NA CELIA 1966-07-19 00:00:00 TS 26.2000 -77.3000 25 hurdat_atl main 141 141 O_____________ hurdat_atl AL031966 26.2000 -77.3000 TD 25 -1 6 356
1966195N19301 1966 39 NA NA CELIA 1966-07-19 03:00:00 TS 26.4223 -77.3173 main 161 161 P_____________ AL031966 26.4223 -77.3173 TD 25 -1 4 12
1966195N19301 1966 39 NA NA CELIA 1966-07-19 06:00:00 TS 26.6000 -77.2000 25 hurdat_atl main 185 185 O_____________ hurdat_atl AL031966 26.6000 -77.2000 TD 25 -1 5 46
1966195N19301 1966 39 NA NA CELIA 1966-07-19 09:00:00 TS 26.7695 -76.9117 main 219 219 P_____________ AL031966 26.7695 -76.9117 TD 25 -1 8 61
1966195N19301 1966 39 NA NA CELIA 1966-07-19 12:00:00 TS 27.0000 -76.4000 25 hurdat_atl main 265 265 O_____________ hurdat_atl AL031966 27.0000 -76.4000 TD 25 -1 13 63
1966195N19301 1966 39 NA NA CELIA 1966-07-19 15:00:00 TS 27.3479 -75.6599 main 336 336 P_____________ AL031966 27.3479 -75.6599 TD 27 -1 16 61
1966195N19301 1966 39 NA NA CELIA 1966-07-19 18:00:00 TS 27.8000 -74.8000 30 hurdat_atl main 438 438 O_____________ hurdat_atl AL031966 27.8000 -74.8000 TD 30 -1 18 57
1966195N19301 1966 39 NA NA CELIA 1966-07-19 21:00:00 TS 28.3046 -73.9991 main 534 534 P_____________ AL031966 28.3046 -73.9991 TD 30 -1 18 52
1966195N19301 1966 39 NA NA CELIA 1966-07-20 00:00:00 TS 28.9000 -73.2000 30 hurdat_atl main 636 636 O_____________ hurdat_atl AL031966 28.9000 -73.2000 TD 30 -1 19 48
1966195N19301 1966 39 NA NA CELIA 1966-07-20 03:00:00 TS 29.5619 -72.4063 main 686 671 P_____________ AL031966 29.5619 -72.4063 TD 40 0 20 45
1966195N19301 1966 39 NA NA CELIA 1966-07-20 06:00:00 TS 30.3000 -71.6000 50 hurdat_atl main 671 664 O_____________ hurdat_atl AL031966 30.3000 -71.6000 TS 50 0 21 43
1966195N19301 1966 39 NA NA CELIA 1966-07-20 09:00:00 TS 31.0767 -70.7783 main 664 664 P_____________ AL031966 31.0767 -70.7783 TS 55 0 22 42
1966195N19301 1966 39 NA NA CELIA 1966-07-20 12:00:00 TS 31.9000 -69.9000 60 997 hurdat_atl main 674 674 O_____________ hurdat_atl AL031966 31.9000 -69.9000 TS 60 997 0 22 44
1966195N19301 1966 39 NA NA CELIA 1966-07-20 15:00:00 TS 32.6820 -68.9336 main 696 696 P_____________ AL031966 32.6820 -68.9336 TS 65 996 1 24 45
1966195N19301 1966 39 NA NA CELIA 1966-07-20 18:00:00 TS 33.6000 -67.9000 70 hurdat_atl main 735 735 I_____________ hurdat_atl AL031966 33.6000 -67.9000 HU 70 996 1 27 41
1966195N19301 1966 39 NA NA CELIA 1966-07-20 21:00:00 TS 34.7217 -66.8325 main 797 730 P_____________ AL031966 34.7217 -66.8325 HU 70 995 1 31 36
1966195N19301 1966 39 NA NA CELIA 1966-07-21 00:00:00 TS 36.1000 -65.7000 70 995 hurdat_atl main 725 654 O_____________ hurdat_atl AL031966 36.1000 -65.7000 HU 70 995 1 36 33
1966195N19301 1966 39 NA NA CELIA 1966-07-21 03:00:00 TS 37.7346 -64.3808 main 649 485 P_____________ AL031966 37.7346 -64.3808 HU 70 996 1 39 30
1966195N19301 1966 39 NA NA CELIA 1966-07-21 06:00:00 TS 39.5000 -63.2000 70 998 hurdat_atl main 477 346 O_____________ hurdat_atl AL031966 39.5000 -63.2000 HU 70 998 1 37 22
1966195N19301 1966 39 NA NA CELIA 1966-07-21 09:00:00 TS 41.1962 -62.5543 main 338 219 P_____________ AL031966 41.1962 -62.5543 HU 67 998 1 35 15
1966195N19301 1966 39 NA NA CELIA 1966-07-21 12:00:00 TS 42.9000 -62.0000 65 998 hurdat_atl main 210 77 O_____________ hurdat_atl AL031966 42.9000 -62.0000 HU 65 998 1 36 18
1966195N19301 1966 39 NA NA CELIA 1966-07-21 15:00:00 TS 44.5931 -61.0233 main 67 0 P_____________ AL031966 44.5931 -61.0233 HU 65 1 37 24
1966195N19301 1966 39 NA NA CELIA 1966-07-21 18:00:00 ET 46.3000 -59.9000 65 hurdat_atl main 11 0 O_____________ hurdat_atl AL031966 46.3000 -59.9000 EX 65 -4 39 24
1966195N19301 1966 39 NA NA CELIA 1966-07-21 21:00:00 ET 48.1411 -58.7042 main 0 0 P_____________ AL031966 48.1411 -58.7042 EX 45 -4 38 23
1966195N19301 1966 39 NA NA CELIA 1966-07-22 00:00:00 ET 49.8000 -57.7000 25 hurdat_atl main 0 0 O_____________ hurdat_atl AL031966 49.8000 -57.7000 EX 25 -4 30 19
1966195N19301 1966 39 NA NA CELIA 1966-07-22 03:00:00 ET 51.0310 -57.1886 main 20 0 P_____________ AL031966 51.0310 -57.1886 EX 25 -4 22 11
1966195N19301 1966 39 NA NA CELIA 1966-07-22 06:00:00 ET 52.0000 -57.0000 25 hurdat_atl main 0 O_____________ hurdat_atl AL031966 52.0000 -57.0000 EX 25 -4 19 7

About IBTrACS Database

This database is a web-friendly format of International Best Track Archive for Climate Stewardship (IBTrACS), a global best track data archive curated by NOAA dating back to 1842.

Updated: 2021-12-03